logo
Rechercher aéroport 
image banner adimage banner adimage banner ad
image banner ad

HAWR - Wardare

Situé à Wardare, Ethiopia

ICAO - HAWR, IATA - WRA

Données fournies par Airmate  

Information générale

Coordonnées: N6°58'0" E45°20'0"
Élévation : 1850 feet MSL.
 
Voir autres Aéroports à Somali

Données opérationnelles

Special qualification required
Heure actuelle UTC:
Heure actuelle locale:
Météo à : - ( 0 km )
METAR: KSFY 251703Z AUTO 10005KT 10SM SCT034 BKN042 25/16 A3026 RMK AO2
Voir NOTAMs / SUP AIP / TFR affectant cet aéroport [VIEW]
Fréquences de communication: [VIEW]

Pistes:

Identifiant RWYQFULongueur (ft)Largeur (ft)SurfaceLDA (ft)
0500UNK
2300UNK

Coordonnées de l'aéroport

Adresse: Wardare Ethiopia

Vue satellite de HAWR